sensor_id;sensor_type;location;lat;lon;timestamp;P1;durP1;ratioP1;P2;durP2;ratioP2
15996;SDS011;8103;51.340;12.326;2023-07-29T00:01:56;2.13;;;1.98;;
15996;SDS011;8103;51.340;12.326;2023-07-29T00:04:23;3.97;;;2.28;;
15996;SDS011;8103;51.340;12.326;2023-07-29T00:06:49;1.63;;;1.30;;
15996;SDS011;8103;51.340;12.326;2023-07-29T00:09:16;1.65;;;1.55;;
15996;SDS011;8103;51.340;12.326;2023-07-29T00:11:43;1.70;;;1.40;;
15996;SDS011;8103;51.340;12.326;2023-07-29T00:14:10;2.08;;;1.30;;
15996;SDS011;8103;51.340;12.326;2023-07-29T00:16:38;2.47;;;1.70;;
15996;SDS011;8103;51.340;12.326;2023-07-29T00:19:06;2.53;;;1.52;;
15996;SDS011;8103;51.340;12.326;2023-07-29T00:21:32;2.13;;;1.92;;
15996;SDS011;8103;51.340;12.326;2023-07-29T00:23:59;3.53;;;1.42;;
15996;SDS011;8103;51.340;12.326;2023-07-29T00:26:27;1.80;;;1.67;;
15996;SDS011;8103;51.340;12.326;2023-07-29T00:28:55;3.33;;;1.70;;
15996;SDS011;8103;51.340;12.326;2023-07-29T00:31:22;1.90;;;1.80;;
15996;SDS011;8103;51.340;12.326;2023-07-29T00:33:49;1.55;;;1.45;;
15996;SDS011;8103;51.340;12.326;2023-07-29T00:36:16;1.75;;;1.45;;
15996;SDS011;8103;51.340;12.326;2023-07-29T00:38:42;2.20;;;1.27;;
15996;SDS011;8103;51.340;12.326;2023-07-29T00:41:09;1.20;;;1.10;;
15996;SDS011;8103;51.340;12.326;2023-07-29T00:43:39;1.50;;;1.38;;
15996;SDS011;8103;51.340;12.326;2023-07-29T00:46:06;1.67;;;1.50;;
15996;SDS011;8103;51.340;12.326;2023-07-29T00:48:34;2.13;;;1.20;;
15996;SDS011;8103;51.340;12.326;2023-07-29T00:51:02;1.50;;;1.30;;
15996;SDS011;8103;51.340;12.326;2023-07-29T00:53:28;1.75;;;1.30;;
15996;SDS011;8103;51.340;12.326;2023-07-29T00:55:55;1.20;;;1.10;;
15996;SDS011;8103;51.340;12.326;2023-07-29T00:58:22;2.20;;;1.52;;
15996;SDS011;8103;51.340;12.326;2023-07-29T01:00:49;2.33;;;1.35;;
15996;SDS011;8103;51.340;12.326;2023-07-29T01:03:16;1.33;;;1.20;;
15996;SDS011;8103;51.340;12.326;2023-07-29T01:05:49;1.25;;;1.15;;
15996;SDS011;8103;51.340;12.326;2023-07-29T01:08:31;1.30;;;1.20;;
15996;SDS011;8103;51.340;12.326;2023-07-29T01:11:11;1.38;;;1.27;;
15996;SDS011;8103;51.340;12.326;2023-07-29T01:14:00;2.25;;;1.00;;
15996;SDS011;8103;51.340;12.326;2023-07-29T01:16:46;2.30;;;1.08;;
15996;SDS011;8103;51.340;12.326;2023-07-29T01:22:16;1.73;;;1.63;;
15996;SDS011;8103;51.340;12.326;2023-07-29T01:24:45;2.00;;;1.13;;
15996;SDS011;8103;51.340;12.326;2023-07-29T01:27:12;1.55;;;1.10;;
15996;SDS011;8103;51.340;12.326;2023-07-29T01:29:38;2.03;;;1.15;;
15996;SDS011;8103;51.340;12.326;2023-07-29T01:32:10;2.67;;;1.42;;
15996;SDS011;8103;51.340;12.326;2023-07-29T01:34:48;1.23;;;1.10;;
15996;SDS011;8103;51.340;12.326;2023-07-29T01:37:22;1.35;;;1.25;;
15996;SDS011;8103;51.340;12.326;2023-07-29T01:39:54;9.20;;;1.67;;
15996;SDS011;8103;51.340;12.326;2023-07-29T01:42:24;1.35;;;1.20;;
15996;SDS011;8103;51.340;12.326;2023-07-29T01:44:53;1.35;;;1.25;;
15996;SDS011;8103;51.340;12.326;2023-07-29T01:47:20;1.50;;;1.40;;
15996;SDS011;8103;51.340;12.326;2023-07-29T01:49:48;1.40;;;1.30;;
15996;SDS011;8103;51.340;12.326;2023-07-29T01:52:15;1.33;;;1.13;;
15996;SDS011;8103;51.340;12.326;2023-07-29T01:54:42;1.45;;;1.23;;
15996;SDS011;8103;51.340;12.326;2023-07-29T01:57:08;3.08;;;1.38;;
15996;SDS011;8103;51.340;12.326;2023-07-29T01:59:35;1.20;;;1.10;;
15996;SDS011;8103;51.340;12.326;2023-07-29T02:02:02;2.25;;;1.10;;
15996;SDS011;8103;51.340;12.326;2023-07-29T02:04:29;1.42;;;1.33;;
15996;SDS011;8103;51.340;12.326;2023-07-29T02:06:55;1.10;;;1.00;;
15996;SDS011;8103;51.340;12.326;2023-07-29T02:09:22;1.20;;;1.10;;
15996;SDS011;8103;51.340;12.326;2023-07-29T02:11:49;2.08;;;1.08;;
15996;SDS011;8103;51.340;12.326;2023-07-29T02:14:16;1.75;;;1.17;;
15996;SDS011;8103;51.340;12.326;2023-07-29T02:16:42;1.55;;;1.40;;
15996;SDS011;8103;51.340;12.326;2023-07-29T02:19:09;1.25;;;1.15;;
15996;SDS011;8103;51.340;12.326;2023-07-29T02:21:35;1.38;;;1.27;;
15996;SDS011;8103;51.340;12.326;2023-07-29T02:24:02;1.00;;;1.00;;
15996;SDS011;8103;51.340;12.326;2023-07-29T02:26:29;1.13;;;1.02;;
15996;SDS011;8103;51.340;12.326;2023-07-29T02:28:56;1.20;;;1.10;;
15996;SDS011;8103;51.340;12.326;2023-07-29T02:31:23;1.52;;;1.42;;
15996;SDS011;8103;51.340;12.326;2023-07-29T02:33:51;1.00;;;1.00;;
15996;SDS011;8103;51.340;12.326;2023-07-29T02:36:18;1.40;;;1.30;;
15996;SDS011;8103;51.340;12.326;2023-07-29T02:38:45;2.03;;;1.33;;
15996;SDS011;8103;51.340;12.326;2023-07-29T02:41:12;1.40;;;1.30;;
15996;SDS011;8103;51.340;12.326;2023-07-29T02:43:39;1.33;;;1.05;;
15996;SDS011;8103;51.340;12.326;2023-07-29T02:46:07;1.38;;;1.27;;
15996;SDS011;8103;51.340;12.326;2023-07-29T02:48:34;1.17;;;1.02;;
15996;SDS011;8103;51.340;12.326;2023-07-29T02:51:00;1.52;;;1.23;;
15996;SDS011;8103;51.340;12.326;2023-07-29T02:53:27;1.38;;;1.27;;
15996;SDS011;8103;51.340;12.326;2023-07-29T02:55:54;1.65;;;1.30;;
15996;SDS011;8103;51.340;12.326;2023-07-29T02:58:21;1.52;;;1.40;;
15996;SDS011;8103;51.340;12.326;2023-07-29T03:00:47;1.88;;;1.17;;
15996;SDS011;8103;51.340;12.326;2023-07-29T03:03:15;1.40;;;1.30;;
15996;SDS011;8103;51.340;12.326;2023-07-29T03:05:42;1.42;;;1.33;;
15996;SDS011;8103;51.340;12.326;2023-07-29T03:08:08;1.17;;;1.10;;
15996;SDS011;8103;51.340;12.326;2023-07-29T03:10:35;1.42;;;1.33;;
15996;SDS011;8103;51.340;12.326;2023-07-29T03:13:02;1.73;;;1.63;;
15996;SDS011;8103;51.340;12.326;2023-07-29T03:15:29;1.75;;;1.50;;
15996;SDS011;8103;51.340;12.326;2023-07-29T03:17:56;1.88;;;1.27;;
15996;SDS011;8103;51.340;12.326;2023-07-29T03:20:23;2.05;;;1.90;;
15996;SDS011;8103;51.340;12.326;2023-07-29T03:22:49;1.33;;;1.23;;
15996;SDS011;8103;51.340;12.326;2023-07-29T03:25:16;1.63;;;1.35;;
15996;SDS011;8103;51.340;12.326;2023-07-29T03:27:43;1.55;;;1.30;;
15996;SDS011;8103;51.340;12.326;2023-07-29T03:30:09;1.35;;;1.23;;
15996;SDS011;8103;51.340;12.326;2023-07-29T03:32:38;1.77;;;1.63;;
15996;SDS011;8103;51.340;12.326;2023-07-29T03:35:09;1.63;;;1.52;;
15996;SDS011;8103;51.340;12.326;2023-07-29T03:37:36;1.45;;;1.35;;
15996;SDS011;8103;51.340;12.326;2023-07-29T03:40:03;1.55;;;1.45;;
15996;SDS011;8103;51.340;12.326;2023-07-29T03:42:30;1.73;;;1.63;;
15996;SDS011;8103;51.340;12.326;2023-07-29T03:44:57;1.50;;;1.40;;
15996;SDS011;8103;51.340;12.326;2023-07-29T03:47:24;2.13;;;1.58;;
15996;SDS011;8103;51.340;12.326;2023-07-29T03:49:50;2.28;;;1.60;;
15996;SDS011;8103;51.340;12.326;2023-07-29T03:52:17;1.63;;;1.50;;
15996;SDS011;8103;51.340;12.326;2023-07-29T03:54:44;1.55;;;1.45;;
15996;SDS011;8103;51.340;12.326;2023-07-29T03:57:10;1.45;;;1.35;;
15996;SDS011;8103;51.340;12.326;2023-07-29T03:59:37;1.63;;;1.50;;
15996;SDS011;8103;51.340;12.326;2023-07-29T04:02:04;1.40;;;1.30;;
15996;SDS011;8103;51.340;12.326;2023-07-29T04:04:30;3.55;;;1.75;;
15996;SDS011;8103;51.340;12.326;2023-07-29T04:06:57;1.67;;;1.58;;
15996;SDS011;8103;51.340;12.326;2023-07-29T04:09:24;1.88;;;1.77;;
15996;SDS011;8103;51.340;12.326;2023-07-29T04:11:51;2.17;;;1.98;;
15996;SDS011;8103;51.340;12.326;2023-07-29T04:14:17;1.67;;;1.58;;
15996;SDS011;8103;51.340;12.326;2023-07-29T04:16:44;2.05;;;1.85;;
15996;SDS011;8103;51.340;12.326;2023-07-29T04:19:14;4.13;;;2.45;;
15996;SDS011;8103;51.340;12.326;2023-07-29T04:21:40;1.90;;;1.70;;
15996;SDS011;8103;51.340;12.326;2023-07-29T04:24:07;3.00;;;1.95;;
15996;SDS011;8103;51.340;12.326;2023-07-29T04:26:34;3.22;;;1.80;;
15996;SDS011;8103;51.340;12.326;2023-07-29T04:29:01;2.25;;;1.58;;
15996;SDS011;8103;51.340;12.326;2023-07-29T04:31:28;1.90;;;1.80;;
15996;SDS011;8103;51.340;12.326;2023-07-29T04:33:54;1.63;;;1.52;;
15996;SDS011;8103;51.340;12.326;2023-07-29T04:36:21;2.70;;;1.75;;
15996;SDS011;8103;51.340;12.326;2023-07-29T04:38:48;1.70;;;1.55;;
15996;SDS011;8103;51.340;12.326;2023-07-29T04:41:14;1.67;;;1.30;;
15996;SDS011;8103;51.340;12.326;2023-07-29T04:43:42;2.83;;;1.63;;
15996;SDS011;8103;51.340;12.326;2023-07-29T04:46:09;2.15;;;1.95;;
15996;SDS011;8103;51.340;12.326;2023-07-29T04:48:36;1.50;;;1.40;;
15996;SDS011;8103;51.340;12.326;2023-07-29T04:51:02;1.52;;;1.42;;
15996;SDS011;8103;51.340;12.326;2023-07-29T04:53:29;1.70;;;1.60;;
15996;SDS011;8103;51.340;12.326;2023-07-29T04:55:56;1.30;;;1.20;;
15996;SDS011;8103;51.340;12.326;2023-07-29T04:58:23;2.47;;;1.40;;
15996;SDS011;8103;51.340;12.326;2023-07-29T05:00:49;1.90;;;1.70;;
15996;SDS011;8103;51.340;12.326;2023-07-29T05:03:16;2.33;;;1.80;;
15996;SDS011;8103;51.340;12.326;2023-07-29T05:05:43;1.98;;;1.60;;
15996;SDS011;8103;51.340;12.326;2023-07-29T05:08:10;1.73;;;1.50;;
15996;SDS011;8103;51.340;12.326;2023-07-29T05:10:36;1.75;;;1.65;;
15996;SDS011;8103;51.340;12.326;2023-07-29T05:13:03;1.90;;;1.75;;
15996;SDS011;8103;51.340;12.326;2023-07-29T05:15:30;1.48;;;1.38;;
15996;SDS011;8103;51.340;12.326;2023-07-29T05:17:56;1.48;;;1.35;;
15996;SDS011;8103;51.340;12.326;2023-07-29T05:20:23;3.85;;;2.13;;
15996;SDS011;8103;51.340;12.326;2023-07-29T05:22:50;2.20;;;1.63;;
15996;SDS011;8103;51.340;12.326;2023-07-29T05:25:16;1.50;;;1.40;;
15996;SDS011;8103;51.340;12.326;2023-07-29T05:27:43;1.60;;;1.30;;
15996;SDS011;8103;51.340;12.326;2023-07-29T05:30:10;2.65;;;1.60;;
15996;SDS011;8103;51.340;12.326;2023-07-29T05:32:37;1.52;;;1.42;;
15996;SDS011;8103;51.340;12.326;2023-07-29T05:35:04;2.10;;;1.10;;
15996;SDS011;8103;51.340;12.326;2023-07-29T05:37:31;2.08;;;1.55;;
15996;SDS011;8103;51.340;12.326;2023-07-29T05:39:58;3.22;;;1.30;;
15996;SDS011;8103;51.340;12.326;2023-07-29T05:42:25;1.63;;;1.52;;
15996;SDS011;8103;51.340;12.326;2023-07-29T05:44:51;1.70;;;1.42;;
15996;SDS011;8103;51.340;12.326;2023-07-29T05:47:18;2.97;;;1.67;;
15996;SDS011;8103;51.340;12.326;2023-07-29T05:49:45;2.58;;;1.50;;
15996;SDS011;8103;51.340;12.326;2023-07-29T05:52:12;1.80;;;1.40;;
15996;SDS011;8103;51.340;12.326;2023-07-29T05:54:38;1.27;;;1.17;;
15996;SDS011;8103;51.340;12.326;2023-07-29T05:57:05;1.73;;;1.63;;
15996;SDS011;8103;51.340;12.326;2023-07-29T05:59:32;2.50;;;1.88;;
15996;SDS011;8103;51.340;12.326;2023-07-29T06:01:59;2.50;;;1.80;;
15996;SDS011;8103;51.340;12.326;2023-07-29T06:04:26;1.90;;;1.50;;
15996;SDS011;8103;51.340;12.326;2023-07-29T06:06:53;1.80;;;1.70;;
15996;SDS011;8103;51.340;12.326;2023-07-29T06:09:22;1.85;;;1.40;;
15996;SDS011;8103;51.340;12.326;2023-07-29T06:11:51;2.03;;;1.70;;
15996;SDS011;8103;51.340;12.326;2023-07-29T06:14:20;1.73;;;1.00;;
15996;SDS011;8103;51.340;12.326;2023-07-29T06:16:47;1.60;;;1.50;;
15996;SDS011;8103;51.340;12.326;2023-07-29T06:19:14;2.17;;;1.73;;
15996;SDS011;8103;51.340;12.326;2023-07-29T06:21:41;1.98;;;1.75;;
15996;SDS011;8103;51.340;12.326;2023-07-29T06:24:08;1.90;;;1.40;;
15996;SDS011;8103;51.340;12.326;2023-07-29T06:26:36;1.55;;;1.23;;
15996;SDS011;8103;51.340;12.326;2023-07-29T06:29:03;1.13;;;1.13;;
15996;SDS011;8103;51.340;12.326;2023-07-29T06:31:30;3.40;;;1.90;;
15996;SDS011;8103;51.340;12.326;2023-07-29T06:33:59;2.75;;;1.67;;
15996;SDS011;8103;51.340;12.326;2023-07-29T06:36:25;4.07;;;1.50;;
15996;SDS011;8103;51.340;12.326;2023-07-29T06:38:52;1.35;;;1.25;;
15996;SDS011;8103;51.340;12.326;2023-07-29T06:41:19;1.67;;;1.23;;
15996;SDS011;8103;51.340;12.326;2023-07-29T06:43:46;5.07;;;2.10;;
15996;SDS011;8103;51.340;12.326;2023-07-29T06:46:12;1.88;;;1.38;;
15996;SDS011;8103;51.340;12.326;2023-07-29T06:48:39;2.53;;;1.63;;
15996;SDS011;8103;51.340;12.326;2023-07-29T06:51:06;3.25;;;1.70;;
15996;SDS011;8103;51.340;12.326;2023-07-29T06:53:33;2.35;;;1.58;;
15996;SDS011;8103;51.340;12.326;2023-07-29T06:56:00;3.10;;;1.48;;
15996;SDS011;8103;51.340;12.326;2023-07-29T06:58:27;1.50;;;1.40;;
15996;SDS011;8103;51.340;12.326;2023-07-29T07:00:54;2.05;;;1.75;;
15996;SDS011;8103;51.340;12.326;2023-07-29T07:03:23;1.45;;;1.35;;
15996;SDS011;8103;51.340;12.326;2023-07-29T07:09:37;1.30;;;1.20;;
15996;SDS011;8103;51.340;12.326;2023-07-29T07:12:04;1.50;;;1.40;;
15996;SDS011;8103;51.340;12.326;2023-07-29T07:14:34;1.40;;;1.30;;
15996;SDS011;8103;51.340;12.326;2023-07-29T07:17:01;2.42;;;1.10;;
15996;SDS011;8103;51.340;12.326;2023-07-29T07:19:27;2.22;;;1.40;;
15996;SDS011;8103;51.340;12.326;2023-07-29T07:21:54;2.75;;;1.15;;
15996;SDS011;8103;51.340;12.326;2023-07-29T07:24:21;2.58;;;1.63;;
15996;SDS011;8103;51.340;12.326;2023-07-29T07:26:49;2.63;;;1.17;;
15996;SDS011;8103;51.340;12.326;2023-07-29T07:29:16;2.60;;;1.20;;
15996;SDS011;8103;51.340;12.326;2023-07-29T07:31:47;1.33;;;0.95;;
15996;SDS011;8103;51.340;12.326;2023-07-29T07:34:18;2.00;;;1.35;;
15996;SDS011;8103;51.340;12.326;2023-07-29T07:36:45;1.73;;;1.58;;
15996;SDS011;8103;51.340;12.326;2023-07-29T07:39:12;1.58;;;1.48;;
15996;SDS011;8103;51.340;12.326;2023-07-29T07:41:40;2.72;;;1.30;;
15996;SDS011;8103;51.340;12.326;2023-07-29T07:44:07;1.23;;;1.00;;
15996;SDS011;8103;51.340;12.326;2023-07-29T07:46:34;1.35;;;1.25;;
15996;SDS011;8103;51.340;12.326;2023-07-29T07:49:01;3.08;;;1.13;;
15996;SDS011;8103;51.340;12.326;2023-07-29T07:51:28;2.35;;;1.40;;
15996;SDS011;8103;51.340;12.326;2023-07-29T07:53:55;1.73;;;1.42;;
15996;SDS011;8103;51.340;12.326;2023-07-29T07:56:21;2.38;;;1.52;;
15996;SDS011;8103;51.340;12.326;2023-07-29T07:58:48;2.28;;;1.40;;
15996;SDS011;8103;51.340;12.326;2023-07-29T08:01:14;1.27;;;1.17;;
15996;SDS011;8103;51.340;12.326;2023-07-29T08:03:41;3.17;;;1.50;;
15996;SDS011;8103;51.340;12.326;2023-07-29T08:06:08;1.73;;;1.40;;
15996;SDS011;8103;51.340;12.326;2023-07-29T08:08:36;2.35;;;1.45;;
15996;SDS011;8103;51.340;12.326;2023-07-29T08:11:03;3.13;;;2.05;;
15996;SDS011;8103;51.340;12.326;2023-07-29T08:13:29;3.85;;;1.20;;
15996;SDS011;8103;51.340;12.326;2023-07-29T08:15:56;1.00;;;0.95;;
15996;SDS011;8103;51.340;12.326;2023-07-29T08:18:23;1.38;;;1.27;;
15996;SDS011;8103;51.340;12.326;2023-07-29T08:20:53;1.95;;;0.95;;
15996;SDS011;8103;51.340;12.326;2023-07-29T08:23:21;1.23;;;1.15;;
15996;SDS011;8103;51.340;12.326;2023-07-29T08:25:55;1.30;;;1.20;;
15996;SDS011;8103;51.340;12.326;2023-07-29T08:28:34;1.52;;;1.20;;
15996;SDS011;8103;51.340;12.326;2023-07-29T08:31:02;2.50;;;1.42;;
15996;SDS011;8103;51.340;12.326;2023-07-29T08:33:30;1.75;;;1.30;;
15996;SDS011;8103;51.340;12.326;2023-07-29T08:35:57;1.08;;;1.02;;
15996;SDS011;8103;51.340;12.326;2023-07-29T08:38:24;1.25;;;1.15;;
15996;SDS011;8103;51.340;12.326;2023-07-29T08:41:10;1.85;;;1.13;;
15996;SDS011;8103;51.340;12.326;2023-07-29T08:44:07;1.75;;;1.10;;
15996;SDS011;8103;51.340;12.326;2023-07-29T08:46:38;2.28;;;1.20;;
15996;SDS011;8103;51.340;12.326;2023-07-29T08:49:06;1.67;;;1.10;;
15996;SDS011;8103;51.340;12.326;2023-07-29T08:51:33;1.15;;;1.05;;
15996;SDS011;8103;51.340;12.326;2023-07-29T08:54:02;3.13;;;1.20;;
15996;SDS011;8103;51.340;12.326;2023-07-29T08:56:29;1.40;;;1.30;;
15996;SDS011;8103;51.340;12.326;2023-07-29T08:58:56;2.92;;;1.00;;
15996;SDS011;8103;51.340;12.326;2023-07-29T09:01:23;1.35;;;1.02;;
15996;SDS011;8103;51.340;12.326;2023-07-29T09:03:50;1.13;;;0.95;;
15996;SDS011;8103;51.340;12.326;2023-07-29T09:06:17;1.83;;;0.95;;
15996;SDS011;8103;51.340;12.326;2023-07-29T09:08:45;1.15;;;1.05;;
15996;SDS011;8103;51.340;12.326;2023-07-29T09:11:14;0.70;;;0.70;;
15996;SDS011;8103;51.340;12.326;2023-07-29T09:13:43;1.42;;;0.77;;
15996;SDS011;8103;51.340;12.326;2023-07-29T09:16:10;1.27;;;1.02;;
15996;SDS011;8103;51.340;12.326;2023-07-29T09:18:37;0.60;;;0.60;;
15996;SDS011;8103;51.340;12.326;2023-07-29T09:21:04;0.45;;;0.45;;
15996;SDS011;8103;51.340;12.326;2023-07-29T09:23:38;2.05;;;0.70;;
15996;SDS011;8103;51.340;12.326;2023-07-29T09:26:08;0.77;;;0.50;;
15996;SDS011;8103;51.340;12.326;2023-07-29T09:28:36;6.97;;;0.80;;
15996;SDS011;8103;51.340;12.326;2023-07-29T09:31:04;0.55;;;0.55;;
15996;SDS011;8103;51.340;12.326;2023-07-29T09:33:34;1.20;;;0.70;;
15996;SDS011;8103;51.340;12.326;2023-07-29T09:36:08;1.42;;;0.85;;
15996;SDS011;8103;51.340;12.326;2023-07-29T09:38:36;2.35;;;0.70;;
15996;SDS011;8103;51.340;12.326;2023-07-29T09:41:04;0.88;;;0.88;;
15996;SDS011;8103;51.340;12.326;2023-07-29T09:43:31;0.73;;;0.73;;
15996;SDS011;8103;51.340;12.326;2023-07-29T09:45:59;1.45;;;1.05;;
15996;SDS011;8103;51.340;12.326;2023-07-29T09:48:27;0.95;;;0.93;;
15996;SDS011;8103;51.340;12.326;2023-07-29T09:50:55;2.60;;;0.85;;
15996;SDS011;8103;51.340;12.326;2023-07-29T09:53:22;1.52;;;1.02;;
15996;SDS011;8103;51.340;12.326;2023-07-29T09:55:49;1.00;;;0.75;;
15996;SDS011;8103;51.340;12.326;2023-07-29T09:58:19;0.65;;;0.65;;
15996;SDS011;8103;51.340;12.326;2023-07-29T10:00:52;0.95;;;0.70;;
15996;SDS011;8103;51.340;12.326;2023-07-29T10:03:20;0.85;;;0.60;;
15996;SDS011;8103;51.340;12.326;2023-07-29T10:05:47;1.77;;;0.57;;
15996;SDS011;8103;51.340;12.326;2023-07-29T10:08:15;0.60;;;0.60;;
15996;SDS011;8103;51.340;12.326;2023-07-29T10:10:44;2.42;;;0.80;;
15996;SDS011;8103;51.340;12.326;2023-07-29T10:13:11;1.70;;;0.85;;
15996;SDS011;8103;51.340;12.326;2023-07-29T10:15:39;0.60;;;0.60;;
15996;SDS011;8103;51.340;12.326;2023-07-29T10:18:06;1.05;;;0.95;;
15996;SDS011;8103;51.340;12.326;2023-07-29T10:20:33;0.90;;;0.80;;
15996;SDS011;8103;51.340;12.326;2023-07-29T10:23:01;1.00;;;0.82;;
15996;SDS011;8103;51.340;12.326;2023-07-29T10:25:43;0.82;;;0.80;;
15996;SDS011;8103;51.340;12.326;2023-07-29T10:28:14;3.90;;;1.02;;
15996;SDS011;8103;51.340;12.326;2023-07-29T10:30:43;0.90;;;0.73;;
15996;SDS011;8103;51.340;12.326;2023-07-29T10:33:10;2.58;;;0.70;;
15996;SDS011;8103;51.340;12.326;2023-07-29T10:35:37;1.52;;;1.20;;
15996;SDS011;8103;51.340;12.326;2023-07-29T10:38:04;1.58;;;1.13;;
15996;SDS011;8103;51.340;12.326;2023-07-29T10:43:32;3.67;;;1.00;;
15996;SDS011;8103;51.340;12.326;2023-07-29T10:49:03;3.67;;;1.40;;
15996;SDS011;8103;51.340;12.326;2023-07-29T10:51:34;3.67;;;1.75;;
15996;SDS011;8103;51.340;12.326;2023-07-29T10:54:10;1.60;;;1.40;;
15996;SDS011;8103;51.340;12.326;2023-07-29T10:56:41;1.63;;;1.52;;
15996;SDS011;8103;51.340;12.326;2023-07-29T11:01:58;1.75;;;1.17;;
15996;SDS011;8103;51.340;12.326;2023-07-29T11:04:29;2.58;;;1.40;;
15996;SDS011;8103;51.340;12.326;2023-07-29T11:17:42;1.38;;;1.27;;
15996;SDS011;8103;51.340;12.326;2023-07-29T11:20:13;3.83;;;1.20;;
15996;SDS011;8103;51.340;12.326;2023-07-29T11:22:41;2.08;;;1.73;;
15996;SDS011;8103;51.340;12.326;2023-07-29T11:25:10;4.15;;;1.60;;
15996;SDS011;8103;51.340;12.326;2023-07-29T11:27:38;1.30;;;1.20;;
15996;SDS011;8103;51.340;12.326;2023-07-29T11:30:06;1.33;;;1.23;;
15996;SDS011;8103;51.340;12.326;2023-07-29T11:32:37;4.45;;;1.33;;
15996;SDS011;8103;51.340;12.326;2023-07-29T11:35:15;1.40;;;1.30;;
15996;SDS011;8103;51.340;12.326;2023-07-29T11:37:44;1.88;;;1.20;;
15996;SDS011;8103;51.340;12.326;2023-07-29T11:40:14;7.05;;;1.85;;
15996;SDS011;8103;51.340;12.326;2023-07-29T11:42:42;1.38;;;1.25;;
15996;SDS011;8103;51.340;12.326;2023-07-29T11:45:09;1.35;;;1.25;;
15996;SDS011;8103;51.340;12.326;2023-07-29T11:47:37;3.38;;;1.20;;
15996;SDS011;8103;51.340;12.326;2023-07-29T11:50:04;4.03;;;1.63;;
15996;SDS011;8103;51.340;12.326;2023-07-29T11:52:33;5.47;;;1.20;;
15996;SDS011;8103;51.340;12.326;2023-07-29T11:55:02;2.72;;;1.15;;
15996;SDS011;8103;51.340;12.326;2023-07-29T11:57:31;1.50;;;1.40;;
15996;SDS011;8103;51.340;12.326;2023-07-29T12:00:02;1.52;;;1.17;;
15996;SDS011;8103;51.340;12.326;2023-07-29T12:02:33;1.40;;;1.30;;
15996;SDS011;8103;51.340;12.326;2023-07-29T12:05:04;1.15;;;1.05;;
15996;SDS011;8103;51.340;12.326;2023-07-29T12:07:32;2.65;;;1.80;;
15996;SDS011;8103;51.340;12.326;2023-07-29T12:10:02;6.97;;;2.33;;
15996;SDS011;8103;51.340;12.326;2023-07-29T12:12:30;1.70;;;1.60;;
15996;SDS011;8103;51.340;12.326;2023-07-29T12:14:58;3.20;;;2.45;;
15996;SDS011;8103;51.340;12.326;2023-07-29T12:17:25;1.48;;;1.35;;
15996;SDS011;8103;51.340;12.326;2023-07-29T12:19:55;2.35;;;1.60;;
15996;SDS011;8103;51.340;12.326;2023-07-29T12:22:23;1.35;;;1.25;;
15996;SDS011;8103;51.340;12.326;2023-07-29T12:24:51;1.50;;;1.35;;
15996;SDS011;8103;51.340;12.326;2023-07-29T12:27:21;2.83;;;1.95;;
15996;SDS011;8103;51.340;12.326;2023-07-29T12:29:48;3.03;;;1.33;;
15996;SDS011;8103;51.340;12.326;2023-07-29T12:32:18;2.05;;;1.33;;
15996;SDS011;8103;51.340;12.326;2023-07-29T12:34:46;2.15;;;1.30;;
15996;SDS011;8103;51.340;12.326;2023-07-29T12:37:13;4.40;;;1.40;;
15996;SDS011;8103;51.340;12.326;2023-07-29T12:39:42;2.25;;;1.40;;
15996;SDS011;8103;51.340;12.326;2023-07-29T12:42:09;2.53;;;1.33;;
15996;SDS011;8103;51.340;12.326;2023-07-29T12:44:36;2.58;;;1.27;;
15996;SDS011;8103;51.340;12.326;2023-07-29T12:47:04;2.08;;;1.10;;
15996;SDS011;8103;51.340;12.326;2023-07-29T12:49:32;1.17;;;1.08;;
15996;SDS011;8103;51.340;12.326;2023-07-29T12:52:00;0.95;;;0.82;;
15996;SDS011;8103;51.340;12.326;2023-07-29T12:54:27;1.67;;;1.25;;
15996;SDS011;8103;51.340;12.326;2023-07-29T12:56:54;1.23;;;1.13;;
15996;SDS011;8103;51.340;12.326;2023-07-29T12:59:22;2.15;;;1.33;;
15996;SDS011;8103;51.340;12.326;2023-07-29T13:01:48;1.38;;;1.25;;
15996;SDS011;8103;51.340;12.326;2023-07-29T13:04:15;1.67;;;1.58;;
15996;SDS011;8103;51.340;12.326;2023-07-29T13:06:42;2.15;;;1.83;;
15996;SDS011;8103;51.340;12.326;2023-07-29T13:09:09;1.65;;;1.20;;
15996;SDS011;8103;51.340;12.326;2023-07-29T13:11:35;1.48;;;1.30;;
15996;SDS011;8103;51.340;12.326;2023-07-29T13:14:02;1.33;;;1.15;;
15996;SDS011;8103;51.340;12.326;2023-07-29T13:16:29;2.35;;;1.58;;
15996;SDS011;8103;51.340;12.326;2023-07-29T13:18:56;2.83;;;1.77;;
15996;SDS011;8103;51.340;12.326;2023-07-29T13:21:24;3.05;;;1.10;;
15996;SDS011;8103;51.340;12.326;2023-07-29T13:23:51;1.13;;;1.02;;
15996;SDS011;8103;51.340;12.326;2023-07-29T13:26:18;0.93;;;0.93;;
15996;SDS011;8103;51.340;12.326;2023-07-29T13:28:45;4.40;;;1.35;;
15996;SDS011;8103;51.340;12.326;2023-07-29T13:31:11;1.92;;;1.05;;
15996;SDS011;8103;51.340;12.326;2023-07-29T13:33:39;1.10;;;1.02;;
15996;SDS011;8103;51.340;12.326;2023-07-29T13:36:05;1.30;;;1.20;;
15996;SDS011;8103;51.340;12.326;2023-07-29T13:38:34;1.55;;;1.40;;
15996;SDS011;8103;51.340;12.326;2023-07-29T13:41:03;1.33;;;1.23;;
15996;SDS011;8103;51.340;12.326;2023-07-29T13:43:30;1.33;;;0.90;;
15996;SDS011;8103;51.340;12.326;2023-07-29T13:45:56;1.65;;;1.55;;
15996;SDS011;8103;51.340;12.326;2023-07-29T13:48:23;2.40;;;1.40;;
15996;SDS011;8103;51.340;12.326;2023-07-29T13:50:50;1.17;;;0.95;;
15996;SDS011;8103;51.340;12.326;2023-07-29T13:53:18;3.45;;;1.75;;
15996;SDS011;8103;51.340;12.326;2023-07-29T13:55:44;1.23;;;1.10;;
15996;SDS011;8103;51.340;12.326;2023-07-29T13:58:11;0.90;;;0.90;;
15996;SDS011;8103;51.340;12.326;2023-07-29T14:00:38;1.13;;;1.02;;
15996;SDS011;8103;51.340;12.326;2023-07-29T14:03:05;1.20;;;1.10;;
15996;SDS011;8103;51.340;12.326;2023-07-29T14:05:32;3.58;;;1.48;;
15996;SDS011;8103;51.340;12.326;2023-07-29T14:07:59;1.30;;;1.10;;
15996;SDS011;8103;51.340;12.326;2023-07-29T14:10:26;2.78;;;1.23;;
15996;SDS011;8103;51.340;12.326;2023-07-29T14:12:52;1.25;;;1.15;;
15996;SDS011;8103;51.340;12.326;2023-07-29T14:15:19;1.10;;;1.00;;
15996;SDS011;8103;51.340;12.326;2023-07-29T14:17:47;1.40;;;1.30;;
15996;SDS011;8103;51.340;12.326;2023-07-29T14:20:14;3.97;;;1.40;;
15996;SDS011;8103;51.340;12.326;2023-07-29T14:22:40;2.22;;;1.50;;
15996;SDS011;8103;51.340;12.326;2023-07-29T14:25:07;6.75;;;1.83;;
15996;SDS011;8103;51.340;12.326;2023-07-29T14:27:34;1.80;;;1.52;;
15996;SDS011;8103;51.340;12.326;2023-07-29T14:30:01;3.50;;;2.20;;
15996;SDS011;8103;51.340;12.326;2023-07-29T14:32:28;5.47;;;2.10;;
15996;SDS011;8103;51.340;12.326;2023-07-29T14:34:55;5.80;;;1.98;;
15996;SDS011;8103;51.340;12.326;2023-07-29T14:37:22;2.83;;;2.40;;
15996;SDS011;8103;51.340;12.326;2023-07-29T14:39:48;6.53;;;2.30;;
15996;SDS011;8103;51.340;12.326;2023-07-29T14:42:15;2.83;;;1.80;;
15996;SDS011;8103;51.340;12.326;2023-07-29T14:44:42;6.85;;;2.22;;
15996;SDS011;8103;51.340;12.326;2023-07-29T14:47:09;1.85;;;1.65;;
15996;SDS011;8103;51.340;12.326;2023-07-29T14:49:35;1.80;;;1.65;;
15996;SDS011;8103;51.340;12.326;2023-07-29T14:52:02;3.80;;;1.95;;
15996;SDS011;8103;51.340;12.326;2023-07-29T14:54:29;3.90;;;1.98;;
15996;SDS011;8103;51.340;12.326;2023-07-29T14:56:56;2.70;;;1.63;;
15996;SDS011;8103;51.340;12.326;2023-07-29T14:59:23;4.88;;;2.00;;
15996;SDS011;8103;51.340;12.326;2023-07-29T15:01:50;2.85;;;1.88;;
15996;SDS011;8103;51.340;12.326;2023-07-29T15:04:16;3.92;;;2.03;;
15996;SDS011;8103;51.340;12.326;2023-07-29T15:06:44;4.82;;;2.10;;
15996;SDS011;8103;51.340;12.326;2023-07-29T15:09:11;3.03;;;2.22;;
15996;SDS011;8103;51.340;12.326;2023-07-29T15:11:37;4.88;;;2.00;;
15996;SDS011;8103;51.340;12.326;2023-07-29T15:14:04;4.07;;;2.33;;
15996;SDS011;8103;51.340;12.326;2023-07-29T15:16:31;5.78;;;2.20;;
15996;SDS011;8103;51.340;12.326;2023-07-29T15:19:02;4.35;;;2.00;;